createdAt,value
2023-04-04T00:01:30.076Z,51.53
2023-04-04T00:06:34.251Z,51.95
2023-04-04T00:11:37.101Z,52.23
2023-04-04T00:16:40.469Z,52.69
2023-04-04T00:21:44.790Z,53.19
2023-04-04T00:26:47.537Z,53.22
2023-04-04T00:31:50.366Z,53.39
2023-04-04T00:36:54.690Z,53.47
2023-04-04T00:41:58.361Z,53.22
2023-04-04T00:47:01.315Z,53.93
2023-04-04T00:52:07.758Z,54.10
2023-04-04T00:57:10.747Z,54.53
2023-04-04T01:02:13.719Z,54.69
2023-04-04T01:07:17.981Z,55.27
2023-04-04T01:12:21.008Z,55.41
2023-04-04T01:17:25.084Z,55.26
2023-04-04T01:22:31.313Z,55.41
2023-04-04T01:27:35.980Z,54.95
2023-04-04T01:32:51.622Z,55.78
2023-04-04T01:38:06.694Z,56.06
2023-04-04T01:43:11.060Z,56.05
2023-04-04T01:48:17.069Z,56.07
2023-04-04T01:53:24.153Z,56.63
2023-04-04T01:58:28.403Z,56.02
2023-04-04T02:03:31.578Z,56.43
2023-04-04T02:08:34.629Z,57.01
2023-04-04T02:13:41.403Z,56.39
2023-04-04T02:18:45.104Z,56.60
2023-04-04T02:23:47.955Z,56.95
2023-04-04T02:28:52.124Z,56.92
2023-04-04T02:33:54.947Z,56.22
2023-04-04T02:38:58.158Z,56.74
2023-04-04T02:44:04.046Z,56.94
2023-04-04T02:49:08.210Z,57.21
2023-04-04T02:54:12.753Z,57.50
2023-04-04T02:59:21.198Z,57.13
2023-04-04T03:04:24.034Z,58.08
2023-04-04T03:09:26.860Z,57.81
2023-04-04T03:14:31.078Z,58.00
2023-04-04T03:19:34.569Z,57.72
2023-04-04T03:31:27.425Z,57.96
2023-04-04T03:36:30.376Z,58.44
2023-04-04T03:41:33.093Z,59.16
2023-04-04T03:46:37.189Z,60.08
2023-04-04T03:51:40.176Z,59.73
2023-04-04T03:56:43.083Z,59.52
2023-04-04T04:01:47.216Z,59.76
2023-04-04T04:06:50.003Z,60.06
2023-04-04T04:11:52.871Z,59.91
2023-04-04T04:16:56.974Z,59.91
2023-04-04T04:21:59.871Z,59.98
2023-04-04T04:27:04.049Z,59.88
2023-04-04T04:32:08.781Z,60.25
2023-04-04T04:37:17.756Z,60.83
2023-04-04T04:42:24.551Z,60.92
2023-04-04T04:47:33.708Z,60.96
2023-04-04T04:52:40.740Z,60.98
2023-04-04T04:57:43.606Z,61.11
2023-04-04T05:02:56.027Z,61.22
2023-04-04T05:08:08.117Z,61.36
2023-04-04T05:13:15.060Z,61.21
2023-04-04T05:18:23.079Z,61.50
2023-04-04T05:23:26.375Z,61.08
2023-04-04T05:28:29.728Z,61.38
2023-04-04T05:33:37.814Z,61.83
2023-04-04T05:38:48.038Z,61.12
2023-04-04T05:43:54.537Z,61.19
2023-04-04T05:49:01.397Z,61.64
2023-04-04T05:54:07.413Z,61.44
2023-04-04T05:59:11.555Z,61.30
2023-04-04T06:04:27.852Z,61.01
2023-04-04T06:09:33.096Z,61.38
2023-04-04T06:14:36.408Z,61.45
2023-04-04T06:19:42.893Z,61.53
2023-04-04T06:24:45.691Z,60.94
2023-04-04T06:29:49.407Z,60.08
2023-04-04T06:34:57.029Z,60.36
2023-04-04T06:40:14.606Z,60.28
2023-04-04T06:45:19.154Z,61.45
2023-04-04T06:50:23.645Z,65.08
2023-04-04T06:55:28.422Z,63.68
2023-04-04T07:00:31.563Z,61.42
2023-04-04T07:05:39.375Z,58.74
2023-04-04T07:10:42.629Z,57.42
2023-04-04T07:15:48.817Z,56.16
2023-04-04T07:20:53.004Z,56.79
2023-04-04T07:25:55.934Z,53.80
2023-04-04T07:31:00.781Z,51.35
2023-04-04T07:36:05.746Z,50.43
2023-04-04T07:41:11.709Z,48.62
2023-04-04T07:46:14.537Z,45.99
2023-04-04T07:51:20.741Z,46.20
2023-04-04T07:56:23.561Z,45.30
2023-04-04T08:01:26.978Z,43.91
2023-04-04T08:06:31.102Z,43.61
2023-04-04T08:11:33.911Z,43.06
2023-04-04T08:16:36.708Z,43.47
2023-04-04T08:21:40.848Z,41.98
2023-04-04T08:26:47.009Z,40.18
2023-04-04T08:31:54.599Z,42.67
2023-04-04T08:36:59.955Z,39.38
2023-04-04T08:42:05.617Z,38.74
2023-04-04T08:47:10.690Z,38.19
2023-04-04T08:52:19.174Z,38.03
2023-04-04T08:57:22.244Z,38.65
2023-04-04T09:02:30.521Z,39.93
2023-04-04T09:07:37.172Z,36.88
2023-04-04T09:12:45.475Z,36.95
2023-04-04T09:17:49.028Z,37.50
2023-04-04T09:22:53.165Z,37.79
2023-04-04T09:27:57.974Z,37.74
2023-04-04T09:33:06.589Z,37.72
2023-04-04T09:38:11.002Z,37.04
2023-04-04T09:43:14.573Z,34.50
2023-04-04T09:48:27.239Z,33.96
2023-04-04T09:53:31.262Z,34.45
2023-04-04T09:58:36.276Z,33.56
2023-04-04T10:03:39.984Z,35.28
2023-04-04T10:08:45.153Z,33.25
2023-04-04T10:13:47.938Z,34.89
2023-04-04T10:18:51.438Z,33.82
2023-04-04T10:23:57.391Z,33.29
2023-04-04T10:29:00.594Z,32.25
2023-04-04T10:34:12.668Z,31.58
2023-04-04T10:39:25.032Z,29.90
2023-04-04T10:44:31.795Z,29.85
2023-04-04T10:49:36.186Z,29.09
2023-04-04T10:54:41.195Z,28.60
2023-04-04T10:59:57.981Z,28.23
2023-04-04T11:05:11.687Z,27.37
2023-04-04T11:10:22.109Z,25.86
2023-04-04T11:15:26.471Z,25.56
2023-04-04T11:20:34.484Z,24.93
2023-04-04T11:25:41.129Z,25.40
2023-04-04T11:30:48.766Z,24.64
2023-04-04T11:35:51.903Z,27.25
2023-04-04T11:40:57.026Z,26.35
2023-04-04T11:46:08.838Z,27.06
2023-04-04T11:51:12.798Z,27.33
2023-04-04T11:56:18.007Z,25.65
2023-04-04T12:01:21.681Z,26.25
2023-04-04T12:06:25.441Z,26.49
2023-04-04T12:11:31.066Z,26.30
2023-04-04T12:16:33.857Z,26.01
2023-04-04T12:21:36.646Z,26.46
2023-04-04T12:26:43.074Z,27.33
2023-04-04T12:31:47.507Z,26.41
2023-04-04T12:36:54.085Z,26.99
2023-04-04T12:41:59.630Z,26.53
2023-04-04T12:47:04.900Z,24.60
2023-04-04T12:52:09.156Z,25.41
2023-04-04T12:57:18.385Z,26.07
2023-04-04T13:02:23.615Z,24.60
2023-04-04T13:07:28.453Z,25.12
2023-04-04T13:12:58.336Z,24.64
2023-04-04T13:18:15.384Z,23.51
2023-04-04T13:23:18.400Z,26.04
2023-04-04T13:28:22.507Z,25.45
2023-04-04T13:33:25.529Z,25.38
2023-04-04T13:38:28.894Z,24.02
2023-04-04T13:43:33.025Z,24.92
2023-04-04T13:48:35.766Z,24.41
2023-04-04T13:53:38.546Z,24.58
2023-04-04T13:58:43.099Z,25.30
2023-04-04T14:03:46.093Z,24.76
2023-04-04T14:08:48.877Z,25.06
2023-04-04T14:13:53.136Z,24.20
2023-04-04T14:18:56.149Z,24.12
2023-04-04T14:23:58.975Z,25.81
2023-04-04T14:29:03.395Z,24.72
2023-04-04T14:34:06.750Z,25.47
2023-04-04T14:39:09.567Z,25.12
2023-04-04T14:44:14.193Z,25.51
2023-04-04T14:49:16.926Z,24.44
2023-04-04T14:54:19.728Z,25.81
2023-04-04T14:59:23.986Z,25.41
2023-04-04T15:04:27.201Z,25.16
2023-04-04T15:09:30.776Z,25.73
2023-04-04T15:14:35.036Z,24.98
2023-04-04T15:19:37.839Z,24.84
2023-04-04T15:24:40.892Z,24.95
2023-04-04T15:29:45.034Z,25.34
2023-04-04T15:34:47.807Z,23.84
2023-04-04T15:39:53.410Z,24.41
2023-04-04T15:44:59.345Z,24.22
2023-04-04T15:50:02.097Z,24.06
2023-04-04T15:55:07.448Z,24.24
2023-04-04T16:00:13.211Z,24.32
2023-04-04T16:05:16.022Z,23.94
2023-04-04T16:10:18.786Z,24.95
2023-04-04T16:15:22.988Z,25.39
2023-04-04T16:20:26.544Z,26.69
2023-04-04T16:25:29.662Z,27.74
2023-04-04T16:30:33.946Z,28.46
2023-04-04T16:35:37.361Z,29.53
2023-04-04T16:40:40.386Z,29.85
2023-04-04T16:45:44.745Z,30.63
2023-04-04T16:50:47.484Z,31.29
2023-04-04T16:55:50.099Z,31.03
2023-04-04T17:00:54.266Z,31.85
2023-04-04T17:05:59.828Z,32.00
2023-04-04T17:11:02.729Z,32.93
2023-04-04T17:16:07.373Z,33.18
2023-04-04T17:21:10.281Z,33.28
2023-04-04T17:26:13.306Z,33.67
2023-04-04T17:31:18.385Z,34.83
2023-04-04T17:36:21.306Z,35.08
2023-04-04T17:41:24.306Z,35.71
2023-04-04T17:46:28.592Z,36.64
2023-04-04T17:51:31.950Z,36.76
2023-04-04T17:56:34.678Z,37.25
2023-04-04T18:01:40.205Z,36.99
2023-04-04T18:06:43.398Z,37.57
2023-04-04T18:11:46.308Z,37.75
2023-04-04T18:16:50.402Z,37.93
2023-04-04T18:21:54.313Z,37.58
2023-04-04T18:26:57.858Z,37.56
2023-04-04T18:32:02.766Z,37.62
2023-04-04T18:37:06.266Z,37.71
2023-04-04T18:42:10.530Z,37.82
2023-04-04T18:47:14.698Z,37.81
2023-04-04T18:52:17.505Z,37.89
2023-04-04T18:57:20.603Z,38.35
2023-04-04T19:02:24.809Z,38.74
2023-04-04T19:07:29.050Z,39.01
2023-04-04T19:12:31.924Z,38.80
2023-04-04T19:17:36.147Z,39.49
2023-04-04T19:22:39.023Z,39.63
2023-04-04T19:27:41.822Z,39.66
2023-04-04T19:32:45.951Z,40.12
2023-04-04T19:37:48.827Z,40.53
2023-04-04T19:42:51.611Z,40.80
2023-04-04T19:47:56.040Z,41.45
2023-04-04T19:52:58.954Z,41.82
2023-04-04T19:58:02.544Z,42.04
2023-04-04T20:03:08.852Z,42.26
2023-04-04T20:08:11.652Z,42.47
2023-04-04T20:13:14.941Z,42.43
2023-04-04T20:18:24.057Z,42.41
2023-04-04T20:23:27.314Z,42.26
2023-04-04T20:28:30.291Z,41.82
2023-04-04T20:33:36.700Z,41.54
2023-04-04T20:38:41.660Z,41.64
2023-04-04T20:43:51.541Z,41.53
2023-04-04T20:48:56.839Z,42.07
2023-04-04T20:54:01.761Z,42.26
2023-04-04T20:59:07.357Z,42.55
2023-04-04T21:04:25.050Z,42.91
2023-04-04T21:09:28.840Z,43.26
2023-04-04T21:14:37.275Z,43.57
2023-04-04T21:19:41.410Z,43.51
2023-04-04T21:24:44.176Z,43.81
2023-04-04T21:29:47.019Z,44.14
2023-04-04T21:34:51.125Z,44.23
2023-04-04T21:39:59.862Z,44.25
2023-04-04T21:45:02.579Z,44.66
2023-04-04T21:50:08.253Z,44.72
2023-04-04T21:55:11.158Z,44.76
2023-04-04T22:00:15.258Z,45.25
2023-04-04T22:05:21.632Z,45.30
2023-04-04T22:10:27.495Z,45.47
2023-04-04T22:15:30.342Z,45.11
2023-04-04T22:20:34.570Z,44.79
2023-04-04T22:25:37.441Z,44.89
2023-04-04T22:30:42.209Z,46.41
2023-04-04T22:35:46.776Z,45.98
2023-04-04T22:40:49.602Z,46.49
2023-04-04T22:45:53.649Z,46.04
2023-04-04T22:50:58.671Z,46.17
2023-04-04T22:56:01.623Z,46.68
2023-04-04T23:01:04.638Z,46.84
2023-04-04T23:06:08.900Z,47.35
2023-04-04T23:11:11.678Z,47.59
2023-04-04T23:16:14.811Z,47.73
2023-04-04T23:21:18.998Z,48.06
2023-04-04T23:26:21.805Z,48.04
2023-04-04T23:31:25.686Z,48.31
2023-04-04T23:36:30.054Z,48.83
2023-04-04T23:41:33.251Z,49.15
2023-04-04T23:46:36.250Z,49.04
2023-04-04T23:51:40.410Z,48.77
2023-04-04T23:56:43.207Z,49.54
